Terminal Aerodrome Forecast
Issued by NWS

Home | Current Version | Previous Version | Text Only | Print | Product List | Glossary On
Versions: 1 2 3 4 5 6 7 8 9 10 11
738
FTUS44 KBMX 090523
TAFTOI
TAF
KTOI 090523Z 0906/1006 28008G14KT P6SM BKN050
     FM091500 29014G24KT P6SM BKN050
     FM100100 29006KT P6SM SKC=

USA.gov is the U.S. government's official web portal to all federal, state and local government web resources and services.